createdAt,value
2018-05-29T00:01:48.942Z,101449.77
2018-05-29T00:04:18.040Z,101456.61
2018-05-29T00:06:47.081Z,101453.45
2018-05-29T00:09:16.122Z,101447.72
2018-05-29T00:11:45.377Z,101449.06
2018-05-29T00:14:14.388Z,101444.02
2018-05-29T00:16:43.524Z,101438.32
2018-05-29T00:19:12.565Z,101440.93
2018-05-29T00:21:41.696Z,101439.41
2018-05-29T00:24:10.762Z,101439.03
2018-05-29T00:26:39.751Z,101433.58
2018-05-29T00:29:08.814Z,101428.48
2018-05-29T00:31:37.845Z,101429.11
2018-05-29T00:34:06.823Z,101430.47
2018-05-29T00:36:35.879Z,101419.76
2018-05-29T00:39:04.978Z,101414.28
2018-05-29T00:41:34.057Z,101416.77
2018-05-29T00:44:03.762Z,101411.45
2018-05-29T00:46:32.729Z,101413.41
2018-05-29T00:49:01.769Z,101419.00
2018-05-29T00:51:30.784Z,101405.61
2018-05-29T00:53:59.669Z,101408.66
2018-05-29T00:56:28.697Z,101409.13
2018-05-29T00:58:57.682Z,101409.16
2018-05-29T01:01:26.756Z,101402.21
2018-05-29T01:03:55.705Z,101404.09
2018-05-29T01:06:24.900Z,101404.56
2018-05-29T01:08:54.033Z,101397.07
2018-05-29T01:11:22.940Z,101400.77
2018-05-29T01:13:51.765Z,101404.68
2018-05-29T01:16:20.701Z,101405.29
2018-05-29T01:18:49.705Z,101396.53
2018-05-29T01:21:18.652Z,101396.13
2018-05-29T01:23:47.742Z,101406.13
2018-05-29T01:26:16.943Z,101405.86
2018-05-29T01:28:46.071Z,101405.69
2018-05-29T01:31:15.057Z,101411.86
2018-05-29T01:33:44.082Z,101405.82
2018-05-29T01:36:13.220Z,101411.81
2018-05-29T01:38:42.037Z,101411.72
2018-05-29T01:41:11.140Z,101405.95
2018-05-29T01:43:39.978Z,101411.92
2018-05-29T01:46:08.993Z,101407.53
2018-05-29T01:48:38.037Z,101424.77
2018-05-29T01:51:07.180Z,101412.73
2018-05-29T01:53:36.359Z,101420.17
2018-05-29T01:56:05.597Z,101423.56
2018-05-29T01:58:34.809Z,101418.27
2018-05-29T02:01:03.817Z,101433.77
2018-05-29T02:03:32.809Z,101428.81
2018-05-29T02:06:01.730Z,101415.73
2018-05-29T02:08:30.801Z,101428.56
2018-05-29T02:10:59.857Z,101423.05
2018-05-29T02:13:28.849Z,101429.87
2018-05-29T02:15:57.687Z,101425.39
2018-05-29T02:18:27.353Z,101421.11
2018-05-29T02:21:06.789Z,101431.81
2018-05-29T02:23:53.008Z,101430.66
2018-05-29T02:26:27.027Z,101424.86
2018-05-29T02:28:56.015Z,101412.01
2018-05-29T02:31:25.143Z,101414.67
2018-05-29T02:33:54.024Z,101413.62
2018-05-29T02:36:22.967Z,101420.95
2018-05-29T02:38:51.930Z,101419.66
2018-05-29T02:41:20.956Z,101424.35
2018-05-29T02:43:49.986Z,101422.22
2018-05-29T02:46:18.941Z,101416.27
2018-05-29T02:48:47.876Z,101408.82
2018-05-29T02:51:16.828Z,101407.25
2018-05-29T02:53:46.037Z,101405.09
2018-05-29T02:56:15.290Z,101406.53
2018-05-29T02:58:44.147Z,101406.55
2018-05-29T03:01:13.610Z,101405.58
2018-05-29T03:03:42.537Z,101407.14
2018-05-29T03:06:11.510Z,101398.61
2018-05-29T03:08:40.694Z,101409.73
2018-05-29T03:11:09.769Z,101404.41
2018-05-29T03:13:38.971Z,101399.23
2018-05-29T03:16:08.100Z,101408.28
2018-05-29T03:18:37.033Z,101404.34
2018-05-29T03:21:06.492Z,101405.23
2018-05-29T03:23:35.784Z,101404.20
2018-05-29T03:26:05.270Z,101396.41
2018-05-29T03:28:34.191Z,101404.97
2018-05-29T03:31:03.175Z,101404.80
2018-05-29T03:33:32.232Z,101412.61
2018-05-29T03:36:01.100Z,101411.27
2018-05-29T03:38:30.088Z,101401.29
2018-05-29T03:40:59.081Z,101404.52
2018-05-29T03:43:28.122Z,101406.08
2018-05-29T03:45:57.082Z,101404.42
2018-05-29T03:48:26.156Z,101406.59
2018-05-29T03:50:55.216Z,101407.86
2018-05-29T03:53:24.321Z,101402.31
2018-05-29T03:55:53.143Z,101404.16
2018-05-29T03:58:22.251Z,101399.87
2018-05-29T04:00:51.283Z,101404.48
2018-05-29T04:03:20.370Z,101398.04
2018-05-29T04:05:50.504Z,101406.14
2018-05-29T04:08:19.909Z,101407.45
2018-05-29T04:10:49.005Z,101408.88
2018-05-29T04:13:17.958Z,101406.95
2018-05-29T04:15:46.884Z,101409.97
2018-05-29T04:18:16.440Z,101411.39
2018-05-29T04:20:45.481Z,101410.51
2018-05-29T04:23:14.533Z,101411.51
2018-05-29T04:28:08.683Z,101412.72
2018-05-29T04:30:37.677Z,101409.58
2018-05-29T04:33:06.916Z,101410.02
2018-05-29T04:35:36.079Z,101418.03
2018-05-29T04:38:05.384Z,101427.59
2018-05-29T04:40:34.287Z,101428.59
2018-05-29T04:43:03.304Z,101431.19
2018-05-29T04:45:32.304Z,101433.03
2018-05-29T04:48:01.397Z,101432.38
2018-05-29T04:50:30.559Z,101436.06
2018-05-29T04:52:59.540Z,101442.98
2018-05-29T04:55:28.700Z,101431.86
2018-05-29T04:57:57.691Z,101435.50
2018-05-29T05:00:26.733Z,101443.36
2018-05-29T05:02:55.782Z,101435.17
2018-05-29T05:05:24.877Z,101440.57
2018-05-29T05:07:53.795Z,101450.86
2018-05-29T05:10:22.960Z,101448.62
2018-05-29T05:12:52.065Z,101449.97
2018-05-29T05:15:21.185Z,101455.61
2018-05-29T05:17:50.099Z,101462.20
2018-05-29T05:20:19.008Z,101460.26
2018-05-29T05:22:51.112Z,101455.84
2018-05-29T05:25:20.063Z,101457.05
2018-05-29T05:27:49.306Z,101459.83
2018-05-29T05:30:18.164Z,101460.66
2018-05-29T05:32:47.245Z,101465.02
2018-05-29T05:35:16.237Z,101469.69
2018-05-29T05:37:45.143Z,101467.28
2018-05-29T05:40:14.063Z,101463.13
2018-05-29T05:42:42.921Z,101475.62
2018-05-29T05:45:12.105Z,101466.50
2018-05-29T05:47:41.183Z,101466.12
2018-05-29T05:50:10.404Z,101471.20
2018-05-29T05:52:39.486Z,101475.72
2018-05-29T05:55:08.661Z,101470.36
2018-05-29T05:57:38.526Z,101477.66
2018-05-29T06:00:07.858Z,101469.64
2018-05-29T06:02:37.569Z,101479.52
2018-05-29T06:05:06.767Z,101468.73
2018-05-29T06:07:35.818Z,101468.28
2018-05-29T06:10:05.000Z,101470.25
2018-05-29T06:12:33.866Z,101468.65
2018-05-29T06:15:02.772Z,101474.90
2018-05-29T06:17:31.862Z,101469.89
2018-05-29T06:20:00.890Z,101469.61
2018-05-29T06:22:30.032Z,101470.75
2018-05-29T06:24:59.436Z,101472.50
2018-05-29T06:27:28.617Z,101466.02
2018-05-29T06:29:57.744Z,101467.67
2018-05-29T06:32:26.793Z,101471.87
2018-05-29T06:34:55.809Z,101476.00
2018-05-29T06:37:24.748Z,101473.36
2018-05-29T06:39:53.884Z,101479.67
2018-05-29T06:42:22.958Z,101476.70
2018-05-29T06:44:52.051Z,101468.63
2018-05-29T06:47:21.226Z,101473.91
2018-05-29T06:49:50.674Z,101471.47
2018-05-29T06:52:19.871Z,101473.15
2018-05-29T06:54:49.232Z,101475.73
2018-05-29T06:57:18.441Z,101473.63
2018-05-29T06:59:47.587Z,101470.61
2018-05-29T07:02:16.550Z,101476.61
2018-05-29T07:04:45.720Z,101477.06
2018-05-29T07:07:14.754Z,101478.11
2018-05-29T07:09:43.800Z,101474.95
2018-05-29T07:12:12.718Z,101470.33
2018-05-29T07:14:41.806Z,101475.42
2018-05-29T07:17:11.022Z,101478.94
2018-05-29T07:19:39.962Z,101470.06
2018-05-29T07:22:08.969Z,101470.55
2018-05-29T07:24:38.056Z,101474.66
2018-05-29T07:27:07.185Z,101469.55
2018-05-29T07:29:36.428Z,101474.42
2018-05-29T07:32:05.428Z,101475.61
2018-05-29T07:34:34.403Z,101477.88
2018-05-29T07:37:03.497Z,101476.84
2018-05-29T07:39:32.933Z,101474.45
2018-05-29T07:42:01.941Z,101468.45
2018-05-29T07:44:36.216Z,101475.23
2018-05-29T07:47:05.260Z,101475.58
2018-05-29T07:49:34.233Z,101471.68
2018-05-29T07:52:03.561Z,101473.84
2018-05-29T07:54:32.816Z,101469.00
2018-05-29T07:57:01.855Z,101468.28
2018-05-29T07:59:30.820Z,101466.81
2018-05-29T08:01:59.900Z,101467.98
2018-05-29T08:04:29.045Z,101466.36
2018-05-29T08:06:58.502Z,101472.30
2018-05-29T08:09:27.912Z,101467.02
2018-05-29T08:11:57.021Z,101458.86
2018-05-29T08:14:25.972Z,101456.92
2018-05-29T08:16:55.158Z,101462.66
2018-05-29T08:19:24.160Z,101462.95
2018-05-29T08:21:53.114Z,101464.06
2018-05-29T08:24:22.280Z,101461.02
2018-05-29T08:26:51.577Z,101462.03
2018-05-29T08:29:21.880Z,101456.72
2018-05-29T08:31:51.310Z,101455.80
2018-05-29T08:34:20.488Z,101457.98
2018-05-29T08:36:49.813Z,101459.17
2018-05-29T08:39:19.062Z,101447.81
2018-05-29T08:41:48.224Z,101453.53
2018-05-29T08:44:17.482Z,101454.94
2018-05-29T08:46:46.570Z,101441.64
2018-05-29T08:49:15.870Z,101442.85
2018-05-29T08:51:45.120Z,101439.40
2018-05-29T08:54:14.088Z,101440.48
2018-05-29T08:56:43.363Z,101442.78
2018-05-29T08:59:12.599Z,101439.84
2018-05-29T09:01:41.586Z,101442.36
2018-05-29T09:04:10.808Z,101442.09
2018-05-29T09:06:39.942Z,101439.93
2018-05-29T09:09:09.046Z,101436.56
2018-05-29T09:11:38.284Z,101440.94
2018-05-29T09:14:07.554Z,101440.94
2018-05-29T09:16:36.890Z,101438.09
2018-05-29T09:19:06.060Z,101438.94
2018-05-29T09:21:35.250Z,101433.08
2018-05-29T09:24:04.308Z,101433.23
2018-05-29T09:26:33.200Z,101440.69
2018-05-29T09:29:02.232Z,101444.84
2018-05-29T09:31:31.350Z,101441.73
2018-05-29T09:34:00.470Z,101444.97
2018-05-29T09:36:29.571Z,101448.55
2018-05-29T09:38:58.812Z,101450.56
2018-05-29T09:41:27.915Z,101446.70
2018-05-29T09:43:57.232Z,101445.27
2018-05-29T09:46:26.567Z,101443.05
2018-05-29T09:48:55.857Z,101435.42
2018-05-29T09:51:24.954Z,101421.27
2018-05-29T09:53:54.168Z,101437.00
2018-05-29T09:56:23.357Z,101434.62
2018-05-29T09:58:52.444Z,101435.04
2018-05-29T10:01:21.541Z,101448.59
2018-05-29T10:03:50.745Z,101437.51
2018-05-29T10:06:19.838Z,101439.16
2018-05-29T10:08:48.996Z,101446.21
2018-05-29T10:11:18.488Z,101448.38
2018-05-29T10:13:47.595Z,101446.30
2018-05-29T10:16:16.494Z,101441.20
2018-05-29T10:18:45.684Z,101439.99
2018-05-29T10:21:14.821Z,101445.05
2018-05-29T10:23:43.760Z,101448.22
2018-05-29T10:26:12.762Z,101450.04
2018-05-29T10:28:41.850Z,101440.61
2018-05-29T10:31:11.006Z,101439.77
2018-05-29T10:33:40.254Z,101434.78
2018-05-29T10:36:09.570Z,101429.12
2018-05-29T10:38:38.797Z,101435.34
2018-05-29T10:41:07.960Z,101433.84
2018-05-29T10:43:37.903Z,101427.95
2018-05-29T10:46:07.227Z,101432.97
2018-05-29T10:48:36.281Z,101424.86
2018-05-29T10:51:05.520Z,101427.12
2018-05-29T10:53:34.807Z,101424.56
2018-05-29T10:56:04.019Z,101420.95
2018-05-29T10:58:33.252Z,101427.63
2018-05-29T11:01:02.418Z,101426.55
2018-05-29T11:03:31.797Z,101426.97
2018-05-29T11:06:01.134Z,101424.22
2018-05-29T11:08:30.297Z,101417.95
2018-05-29T11:10:59.576Z,101409.39
2018-05-29T11:13:28.628Z,101418.07
2018-05-29T11:15:57.785Z,101416.10
2018-05-29T11:18:26.844Z,101420.16
2018-05-29T11:20:55.801Z,101416.11
2018-05-29T11:23:25.893Z,101417.30
2018-05-29T11:25:54.710Z,101416.16
2018-05-29T11:28:23.812Z,101416.95
2018-05-29T11:30:52.944Z,101420.13
2018-05-29T11:33:22.104Z,101424.30
2018-05-29T11:35:51.447Z,101423.19
2018-05-29T11:38:20.452Z,101428.62
2018-05-29T11:40:49.346Z,101423.46
2018-05-29T11:43:18.286Z,101432.09
2018-05-29T11:45:47.308Z,101430.43
2018-05-29T11:48:16.685Z,101425.34
2018-05-29T11:50:46.049Z,101431.12
2018-05-29T11:53:15.225Z,101432.84
2018-05-29T11:55:44.433Z,101431.13
2018-05-29T11:58:13.413Z,101424.24
2018-05-29T12:00:42.732Z,101428.47
2018-05-29T12:03:11.668Z,101425.34
2018-05-29T12:05:40.593Z,101428.73
2018-05-29T12:08:09.474Z,101424.70
2018-05-29T12:10:38.644Z,101420.03
2018-05-29T12:13:07.679Z,101422.65
2018-05-29T12:15:36.974Z,101432.87
2018-05-29T12:18:06.299Z,101430.93
2018-05-29T12:20:35.288Z,101428.09
2018-05-29T12:23:04.541Z,101427.45
2018-05-29T12:25:33.677Z,101426.92
2018-05-29T12:28:03.044Z,101439.91
2018-05-29T12:30:31.948Z,101435.78
2018-05-29T12:33:01.260Z,101449.20
2018-05-29T12:35:30.146Z,101449.31
2018-05-29T12:37:59.442Z,101441.77
2018-05-29T12:40:28.487Z,101441.61
2018-05-29T12:42:57.709Z,101442.90
2018-05-29T12:45:27.242Z,101451.98
2018-05-29T12:47:56.409Z,101441.52
2018-05-29T12:50:25.672Z,101443.84
2018-05-29T12:52:54.694Z,101444.54
2018-05-29T12:55:24.056Z,101445.95
2018-05-29T12:57:52.768Z,101444.14
2018-05-29T13:00:21.557Z,101448.66
2018-05-29T13:02:50.758Z,101442.02
2018-05-29T13:05:20.113Z,101444.17
2018-05-29T13:07:49.238Z,101441.23
2018-05-29T13:10:18.303Z,101427.73
2018-05-29T13:12:47.460Z,101439.27
2018-05-29T13:15:16.430Z,101436.72
2018-05-29T13:17:45.597Z,101433.53
2018-05-29T13:20:14.847Z,101437.08
2018-05-29T13:22:44.117Z,101425.55
2018-05-29T13:25:13.128Z,101439.45
2018-05-29T13:27:43.319Z,101436.31
2018-05-29T13:30:12.224Z,101444.25
2018-05-29T13:32:41.301Z,101436.41
2018-05-29T13:35:10.383Z,101431.34
2018-05-29T13:37:39.276Z,101436.23
2018-05-29T13:40:08.209Z,101435.81
2018-05-29T13:42:37.201Z,101436.94
2018-05-29T13:45:06.165Z,101439.40
2018-05-29T13:47:35.543Z,101438.81
2018-05-29T13:50:04.578Z,101444.78
2018-05-29T13:52:33.648Z,101443.09
2018-05-29T13:55:02.662Z,101436.98
2018-05-29T13:57:31.903Z,101440.83
2018-05-29T14:00:00.658Z,101432.64
2018-05-29T14:02:29.624Z,101436.52
2018-05-29T14:04:58.619Z,101431.31
2018-05-29T14:07:27.521Z,101430.94
2018-05-29T14:09:56.866Z,101426.81
2018-05-29T14:12:25.861Z,101426.04
2018-05-29T14:14:55.073Z,101419.33
2018-05-29T14:17:24.371Z,101415.84
2018-05-29T14:19:53.208Z,101416.60
2018-05-29T14:22:22.252Z,101425.38
2018-05-29T14:24:51.240Z,101414.62
2018-05-29T14:27:20.240Z,101418.61
2018-05-29T14:29:49.496Z,101413.64
2018-05-29T14:32:18.229Z,101414.30
2018-05-29T14:34:46.933Z,101407.03
2018-05-29T14:37:15.905Z,101407.95
2018-05-29T14:39:44.903Z,101398.08
2018-05-29T14:42:13.555Z,101395.44
2018-05-29T14:44:42.531Z,101392.13
2018-05-29T14:47:11.472Z,101384.01
2018-05-29T14:49:40.412Z,101383.58
2018-05-29T14:52:09.490Z,101377.25
2018-05-29T14:54:38.309Z,101371.74
2018-05-29T14:57:07.133Z,101372.66
2018-05-29T14:59:36.245Z,101374.36
2018-05-29T15:02:05.004Z,101376.76
2018-05-29T15:04:33.712Z,101368.14
2018-05-29T15:07:02.714Z,101369.23
2018-05-29T15:09:31.479Z,101356.89
2018-05-29T15:12:00.398Z,101362.11
2018-05-29T15:14:29.280Z,101367.41
2018-05-29T15:16:58.182Z,101368.15
2018-05-29T15:19:26.863Z,101372.39
2018-05-29T15:21:55.682Z,101367.75
2018-05-29T15:24:24.386Z,101378.79
2018-05-29T15:26:53.113Z,101374.30
2018-05-29T15:29:21.906Z,101369.39
2018-05-29T15:31:50.913Z,101374.72
2018-05-29T15:34:19.790Z,101369.92
2018-05-29T15:36:48.595Z,101374.64
2018-05-29T15:39:17.457Z,101373.41
2018-05-29T15:41:46.215Z,101375.91
2018-05-29T15:44:15.023Z,101372.27
2018-05-29T15:46:43.880Z,101378.75
2018-05-29T15:49:12.948Z,101369.70
2018-05-29T15:51:41.693Z,101374.52
2018-05-29T15:54:10.632Z,101372.60
2018-05-29T15:56:39.459Z,101368.13
2018-05-29T15:59:08.367Z,101369.50
2018-05-29T16:01:37.132Z,101374.88
2018-05-29T16:04:05.942Z,101372.81
2018-05-29T16:06:34.793Z,101376.00
2018-05-29T16:09:03.879Z,101377.27
2018-05-29T16:11:32.701Z,101370.95
2018-05-29T16:14:01.449Z,101376.52
2018-05-29T16:16:30.230Z,101378.12
2018-05-29T16:18:58.961Z,101386.92
2018-05-29T16:21:27.700Z,101387.41
2018-05-29T16:23:56.418Z,101388.38
2018-05-29T16:26:25.276Z,101390.63
2018-05-29T16:28:54.041Z,101388.58
2018-05-29T16:31:22.985Z,101391.02
2018-05-29T16:33:51.682Z,101394.41
2018-05-29T16:36:20.822Z,101390.13
2018-05-29T16:38:49.755Z,101395.38
2018-05-29T16:41:18.433Z,101396.50
2018-05-29T16:43:47.170Z,101392.80
2018-05-29T16:46:15.861Z,101383.67
2018-05-29T16:48:44.781Z,101389.52
2018-05-29T16:51:13.522Z,101384.07
2018-05-29T16:53:42.365Z,101384.11
2018-05-29T16:56:11.072Z,101383.01
2018-05-29T16:58:40.172Z,101381.77
2018-05-29T17:01:08.972Z,101375.26
2018-05-29T17:03:37.733Z,101378.34
2018-05-29T17:06:06.825Z,101378.24
2018-05-29T17:08:35.740Z,101375.27
2018-05-29T17:11:05.013Z,101373.80
2018-05-29T17:13:33.784Z,101371.08
2018-05-29T17:16:02.824Z,101380.94
2018-05-29T17:18:31.498Z,101373.28
2018-05-29T17:21:00.181Z,101374.77
2018-05-29T17:23:28.913Z,101374.50
2018-05-29T17:25:57.729Z,101364.55
2018-05-29T17:28:26.503Z,101365.20
2018-05-29T17:30:55.457Z,101362.10
2018-05-29T17:33:24.552Z,101363.73
2018-05-29T17:35:53.241Z,101370.25
2018-05-29T17:38:22.030Z,101362.98
2018-05-29T17:40:50.820Z,101366.83
2018-05-29T17:43:19.534Z,101365.98
2018-05-29T17:45:48.197Z,101369.26
2018-05-29T17:48:16.968Z,101366.98
2018-05-29T17:50:45.704Z,101368.70
2018-05-29T17:53:14.470Z,101365.11
2018-05-29T17:55:43.145Z,101360.80
2018-05-29T17:58:12.151Z,101364.91
2018-05-29T18:00:40.897Z,101368.13
2018-05-29T18:03:09.626Z,101369.00
2018-05-29T18:05:38.355Z,101369.98
2018-05-29T18:08:07.096Z,101375.37
2018-05-29T18:10:35.898Z,101378.52
2018-05-29T18:13:04.634Z,101377.60
2018-05-29T18:15:33.322Z,101374.55
2018-05-29T18:18:02.034Z,101371.61
2018-05-29T18:20:30.777Z,101370.14
2018-05-29T18:22:59.577Z,101369.80
2018-05-29T18:25:28.366Z,101373.97
2018-05-29T18:27:57.188Z,101372.19
2018-05-29T18:30:25.976Z,101372.31
2018-05-29T18:32:55.509Z,101372.91
2018-05-29T18:35:24.346Z,101381.34
2018-05-29T18:37:53.599Z,101375.95
2018-05-29T18:40:22.322Z,101375.53
2018-05-29T18:42:50.991Z,101378.48
2018-05-29T18:45:19.734Z,101377.09
2018-05-29T18:47:48.624Z,101370.37
2018-05-29T18:50:17.495Z,101372.94
2018-05-29T18:52:46.433Z,101370.68
2018-05-29T18:55:15.628Z,101387.47
2018-05-29T18:57:44.319Z,101387.84
2018-05-29T19:00:13.082Z,101392.75
2018-05-29T19:02:41.797Z,101394.13
2018-05-29T19:05:10.653Z,101394.83
2018-05-29T19:07:39.409Z,101396.58
2018-05-29T19:10:08.272Z,101385.78
2018-05-29T19:12:37.204Z,101393.53
2018-05-29T19:15:05.913Z,101392.42
2018-05-29T19:17:34.616Z,101383.34
2018-05-29T19:20:03.364Z,101386.94
2018-05-29T19:22:32.197Z,101389.62
2018-05-29T19:25:01.044Z,101384.71
2018-05-29T19:27:29.995Z,101378.94
2018-05-29T19:29:58.689Z,101377.76
2018-05-29T19:32:27.486Z,101384.22
2018-05-29T19:34:56.172Z,101384.45
2018-05-29T19:37:24.913Z,101390.41
2018-05-29T19:39:53.825Z,101385.41
2018-05-29T19:42:22.703Z,101377.92
2018-05-29T19:44:51.645Z,101380.00
2018-05-29T19:47:20.288Z,101375.47
2018-05-29T19:49:49.073Z,101373.94
2018-05-29T19:52:17.909Z,101377.76
2018-05-29T19:54:46.612Z,101369.59
2018-05-29T19:57:15.525Z,101362.50
2018-05-29T19:59:44.224Z,101366.68
2018-05-29T20:02:13.932Z,101367.27
2018-05-29T20:04:42.824Z,101361.72
2018-05-29T20:07:11.506Z,101365.58
2018-05-29T20:09:40.341Z,101364.73
2018-05-29T20:12:09.422Z,101369.84
2018-05-29T20:14:38.099Z,101372.67
2018-05-29T20:17:06.942Z,101372.14
2018-05-29T20:19:35.877Z,101366.45
2018-05-29T20:22:05.009Z,101365.91
2018-05-29T20:24:33.753Z,101366.33
2018-05-29T20:27:02.765Z,101356.13
2018-05-29T20:29:31.498Z,101364.00
2018-05-29T20:32:00.344Z,101363.36
2018-05-29T20:34:29.301Z,101361.45
2018-05-29T20:36:58.040Z,101364.05
2018-05-29T20:39:27.020Z,101355.84
2018-05-29T20:41:55.724Z,101350.06
2018-05-29T20:44:24.396Z,101352.30
2018-05-29T20:46:53.588Z,101349.05
2018-05-29T20:49:22.332Z,101351.41
2018-05-29T20:51:51.193Z,101345.84
2018-05-29T20:54:19.931Z,101344.09
2018-05-29T20:56:48.772Z,101340.11
2018-05-29T20:59:17.608Z,101345.63
2018-05-29T21:01:46.596Z,101339.81
2018-05-29T21:04:15.501Z,101344.57
2018-05-29T21:06:44.451Z,101343.17
2018-05-29T21:09:13.230Z,101344.95
2018-05-29T21:11:42.070Z,101340.87
2018-05-29T21:14:10.953Z,101338.45
2018-05-29T21:16:39.777Z,101338.10
2018-05-29T21:19:08.537Z,101335.86
2018-05-29T21:21:37.287Z,101338.77
2018-05-29T21:24:06.165Z,101336.70
2018-05-29T21:26:34.895Z,101335.84
2018-05-29T21:29:03.760Z,101336.89
2018-05-29T21:31:32.584Z,101332.08
2018-05-29T21:34:01.381Z,101332.75
2018-05-29T21:36:30.332Z,101325.88
2018-05-29T21:38:59.193Z,101326.20
2018-05-29T21:41:28.105Z,101318.03
2018-05-29T21:43:56.950Z,101323.96
2018-05-29T21:46:25.842Z,101315.17
2018-05-29T21:48:54.759Z,101313.69
2018-05-29T21:51:23.661Z,101307.35
2018-05-29T21:53:52.404Z,101309.45
2018-05-29T21:56:21.310Z,101307.32
2018-05-29T21:58:51.071Z,101300.02
2018-05-29T22:01:20.171Z,101308.55
2018-05-29T22:03:49.256Z,101304.62
2018-05-29T22:06:17.960Z,101304.37
2018-05-29T22:08:46.662Z,101307.14
2018-05-29T22:11:15.411Z,101317.09
2018-05-29T22:13:44.063Z,101312.18
2018-05-29T22:16:13.049Z,101321.78
2018-05-29T22:18:42.434Z,101319.39
2018-05-29T22:21:11.283Z,101320.23
2018-05-29T22:23:40.033Z,101317.58
2018-05-29T22:26:08.816Z,101313.45
2018-05-29T22:28:37.553Z,101311.25
2018-05-29T22:31:06.455Z,101316.70
2018-05-29T22:33:35.340Z,101314.78
2018-05-29T22:36:04.030Z,101307.47
2018-05-29T22:38:33.133Z,101309.02
2018-05-29T22:41:01.991Z,101306.59
2018-05-29T22:43:30.955Z,101298.95
2018-05-29T22:45:59.869Z,101294.95
2018-05-29T22:48:28.740Z,101299.28
2018-05-29T22:50:57.691Z,101294.55
2018-05-29T22:53:26.532Z,101290.84
2018-05-29T22:55:55.211Z,101283.19
2018-05-29T22:58:23.970Z,101292.56
2018-05-29T23:00:52.728Z,101292.49
2018-05-29T23:03:21.784Z,101292.75
2018-05-29T23:05:51.332Z,101291.52
2018-05-29T23:08:20.208Z,101283.69
2018-05-29T23:10:49.696Z,101292.20
2018-05-29T23:13:18.839Z,101292.24
2018-05-29T23:15:47.834Z,101295.22
2018-05-29T23:18:16.636Z,101291.90
2018-05-29T23:20:45.804Z,101287.16
2018-05-29T23:23:15.122Z,101282.48
2018-05-29T23:25:44.173Z,101282.55
2018-05-29T23:28:13.312Z,101282.91
2018-05-29T23:30:42.117Z,101282.20
2018-05-29T23:33:11.147Z,101284.81
2018-05-29T23:35:40.065Z,101281.50
2018-05-29T23:38:09.172Z,101283.34
2018-05-29T23:40:38.172Z,101280.78
2018-05-29T23:43:07.220Z,101284.94
2018-05-29T23:45:36.291Z,101279.17
2018-05-29T23:48:05.185Z,101282.91
2018-05-29T23:50:34.033Z,101281.73
2018-05-29T23:53:03.067Z,101279.82
2018-05-29T23:55:32.029Z,101284.99
2018-05-29T23:58:00.870Z,101284.03
